createdAt,value
2023-11-07T00:01:38.827Z,7.40
2023-11-07T00:05:22.006Z,7.40
2023-11-07T00:09:04.617Z,7.50
2023-11-07T00:12:46.681Z,7.40
2023-11-07T00:16:29.597Z,7.40
2023-11-07T00:20:12.000Z,7.30
2023-11-07T00:23:54.116Z,7.30
2023-11-07T00:27:36.085Z,7.20
2023-11-07T00:31:18.221Z,7.20
2023-11-07T00:35:00.464Z,7.10
2023-11-07T00:38:42.640Z,7.20
2023-11-07T00:42:25.553Z,7.20
2023-11-07T00:46:07.685Z,7.30
2023-11-07T00:49:49.986Z,7.30
2023-11-07T00:53:32.162Z,7.20
2023-11-07T00:57:14.179Z,7.20
2023-11-07T01:00:56.331Z,7.20
2023-11-07T01:04:38.531Z,7.20
2023-11-07T01:08:21.339Z,7.10
2023-11-07T01:12:03.660Z,7.10
2023-11-07T01:15:46.412Z,7.00
2023-11-07T01:19:28.548Z,6.90
2023-11-07T01:23:10.695Z,6.90
2023-11-07T01:26:53.051Z,6.90
2023-11-07T01:30:35.211Z,6.90
2023-11-07T01:34:18.135Z,6.80
2023-11-07T01:38:00.243Z,6.80
2023-11-07T01:41:43.138Z,6.80
2023-11-07T01:45:25.397Z,6.80
2023-11-07T01:49:09.865Z,6.70
2023-11-07T01:52:52.427Z,6.80
2023-11-07T01:56:34.639Z,6.80
2023-11-07T02:00:18.009Z,6.90
2023-11-07T02:04:00.211Z,6.90
2023-11-07T02:07:42.406Z,6.90
2023-11-07T02:11:25.892Z,6.90
2023-11-07T02:15:25.172Z,6.90
2023-11-07T02:19:07.477Z,6.90
2023-11-07T02:22:54.131Z,6.90
2023-11-07T02:26:36.153Z,6.80
2023-11-07T02:30:18.307Z,6.80
2023-11-07T02:34:00.384Z,6.70
2023-11-07T02:37:42.596Z,6.60
2023-11-07T02:41:24.571Z,6.60
2023-11-07T02:45:07.712Z,6.50
2023-11-07T02:48:49.895Z,6.50
2023-11-07T02:52:32.519Z,6.50
2023-11-07T02:56:14.893Z,6.40
2023-11-07T02:59:56.880Z,6.30
2023-11-07T03:03:38.996Z,6.30
2023-11-07T03:07:22.304Z,6.20
2023-11-07T03:11:04.554Z,6.30
2023-11-07T03:14:46.610Z,6.30
2023-11-07T03:18:28.707Z,6.20
2023-11-07T03:22:10.837Z,6.30
2023-11-07T03:25:56.235Z,6.40
2023-11-07T03:29:39.153Z,6.40
2023-11-07T03:33:22.000Z,6.40
2023-11-07T03:37:04.526Z,6.40
2023-11-07T03:40:47.088Z,6.40
2023-11-07T03:44:29.118Z,6.30
2023-11-07T03:48:11.160Z,6.30
2023-11-07T03:51:53.288Z,6.40
2023-11-07T03:55:35.307Z,6.40
2023-11-07T03:59:17.277Z,6.40
2023-11-07T04:02:59.279Z,6.40
2023-11-07T04:06:41.395Z,6.40
2023-11-07T04:10:23.739Z,6.40
2023-11-07T04:14:05.715Z,6.40
2023-11-07T04:17:50.615Z,6.40
2023-11-07T04:21:34.601Z,6.40
2023-11-07T04:25:19.305Z,6.40
2023-11-07T04:29:01.419Z,6.40
2023-11-07T04:32:43.424Z,6.30
2023-11-07T04:36:25.625Z,6.30
2023-11-07T04:40:08.424Z,6.30
2023-11-07T04:43:51.123Z,6.30
2023-11-07T04:47:34.132Z,6.40
2023-11-07T04:51:18.626Z,6.40
2023-11-07T04:55:01.269Z,6.50
2023-11-07T04:58:56.794Z,6.50
2023-11-07T05:02:41.709Z,6.50
2023-11-07T05:06:23.946Z,6.40
2023-11-07T05:10:11.079Z,6.40
2023-11-07T05:13:53.265Z,6.40
2023-11-07T05:17:37.247Z,6.40
2023-11-07T05:21:19.290Z,6.30
2023-11-07T05:25:01.290Z,6.30
2023-11-07T05:28:44.479Z,6.30
2023-11-07T05:32:26.583Z,6.30
2023-11-07T05:36:09.449Z,6.30
2023-11-07T05:39:51.641Z,6.20
2023-11-07T05:43:33.672Z,6.20
2023-11-07T05:47:15.717Z,6.20
2023-11-07T05:50:58.562Z,6.20
2023-11-07T05:54:40.503Z,6.10
2023-11-07T05:58:22.564Z,6.00
2023-11-07T06:02:04.731Z,6.00
2023-11-07T06:05:47.003Z,5.90
2023-11-07T06:09:30.074Z,5.90
2023-11-07T06:13:12.148Z,5.90
2023-11-07T06:16:57.026Z,5.80
2023-11-07T06:20:39.046Z,5.70
2023-11-07T06:24:21.081Z,5.70
2023-11-07T06:28:03.484Z,5.70
2023-11-07T06:31:46.866Z,5.70
2023-11-07T06:35:29.066Z,5.70
2023-11-07T06:39:11.807Z,5.60
2023-11-07T06:42:54.314Z,5.60
2023-11-07T06:46:36.986Z,5.60
2023-11-07T06:50:19.010Z,5.60
2023-11-07T06:54:01.699Z,5.60
2023-11-07T06:57:43.838Z,5.70
2023-11-07T07:01:26.478Z,5.70
2023-11-07T07:05:14.870Z,5.80
2023-11-07T07:08:57.334Z,5.80
2023-11-07T07:12:40.206Z,5.80
2023-11-07T07:16:23.897Z,5.90
2023-11-07T07:20:13.339Z,6.00
2023-11-07T07:23:56.138Z,6.10
2023-11-07T07:27:38.169Z,6.10
2023-11-07T07:31:28.458Z,6.10
2023-11-07T07:35:16.519Z,6.10
2023-11-07T07:39:30.756Z,6.00
2023-11-07T07:43:14.172Z,6.00
2023-11-07T07:46:59.553Z,6.00
2023-11-07T07:50:48.140Z,6.10
2023-11-07T07:58:23.579Z,6.30
2023-11-07T08:02:08.432Z,6.40
2023-11-07T08:06:07.611Z,6.50
2023-11-07T08:09:51.811Z,6.70
2023-11-07T08:18:09.550Z,7.20
2023-11-07T08:21:56.501Z,7.50
2023-11-07T08:25:41.195Z,7.80
2023-11-07T08:29:23.221Z,8.30
2023-11-07T08:33:11.986Z,8.40
2023-11-07T08:37:06.551Z,8.60
2023-11-07T08:41:03.548Z,9.30
2023-11-07T08:44:45.929Z,10.20
2023-11-07T08:53:28.046Z,11.80
2023-11-07T09:01:20.674Z,13.10
2023-11-07T09:05:04.694Z,13.40
2023-11-07T10:57:00.010Z,10.00
2023-11-07T13:51:34.201Z,11.30
2023-11-07T14:36:38.978Z,11.30
2023-11-07T16:16:35.912Z,10.00
2023-11-07T16:24:47.132Z,9.90
2023-11-07T16:28:33.352Z,9.90
2023-11-07T16:32:25.491Z,9.80
2023-11-07T16:36:27.290Z,9.80
2023-11-07T16:40:13.232Z,9.60
2023-11-07T16:43:55.886Z,9.60
2023-11-07T16:47:38.176Z,9.50
2023-11-07T16:51:21.502Z,9.40
2023-11-07T16:55:04.804Z,9.30
2023-11-07T16:58:46.755Z,9.30
2023-11-07T17:02:28.874Z,9.20
2023-11-07T17:06:10.892Z,9.20
2023-11-07T17:09:52.913Z,9.10
2023-11-07T17:13:34.948Z,9.00
2023-11-07T17:17:17.515Z,8.90
2023-11-07T17:20:59.591Z,8.80
2023-11-07T17:24:41.697Z,8.80
2023-11-07T17:28:23.837Z,8.70
2023-11-07T17:32:07.030Z,8.60
2023-11-07T17:35:49.128Z,8.50
2023-11-07T17:39:35.358Z,8.50
2023-11-07T17:43:17.879Z,8.40
2023-11-07T17:46:59.978Z,8.30
2023-11-07T17:50:41.923Z,8.30
2023-11-07T17:54:23.926Z,8.20
2023-11-07T17:58:05.948Z,8.10
2023-11-07T18:01:47.981Z,8.00
2023-11-07T18:05:29.902Z,7.90
2023-11-07T18:09:14.584Z,7.80
2023-11-07T18:12:56.686Z,7.70
2023-11-07T18:16:39.788Z,7.70
2023-11-07T18:20:21.880Z,7.60
2023-11-07T18:24:04.828Z,7.50
2023-11-07T18:27:47.006Z,7.60
2023-11-07T18:31:29.121Z,7.50
2023-11-07T18:35:12.056Z,7.50
2023-11-07T18:38:54.568Z,7.50
2023-11-07T18:42:36.588Z,7.40
2023-11-07T18:46:18.789Z,7.40
2023-11-07T18:50:03.096Z,7.40
2023-11-07T18:53:46.239Z,7.40
2023-11-07T18:57:28.629Z,7.40
2023-11-07T19:01:10.737Z,7.30
2023-11-07T19:04:53.342Z,7.30
2023-11-07T19:08:35.359Z,7.30
2023-11-07T19:12:17.546Z,7.20
2023-11-07T19:16:01.424Z,7.20
2023-11-07T19:19:44.456Z,7.20
2023-11-07T19:23:26.400Z,7.10
2023-11-07T19:27:10.219Z,7.10
2023-11-07T19:30:53.419Z,7.10
2023-11-07T19:34:35.480Z,7.00
2023-11-07T19:38:17.774Z,7.00
2023-11-07T19:42:05.494Z,6.90
2023-11-07T19:45:47.854Z,6.90
2023-11-07T19:49:29.919Z,6.90
2023-11-07T19:53:12.426Z,6.80
2023-11-07T19:56:55.417Z,6.80
2023-11-07T20:00:37.596Z,6.80
2023-11-07T20:04:19.945Z,6.80
2023-11-07T20:08:02.157Z,6.80
2023-11-07T20:11:44.179Z,6.80
2023-11-07T20:15:26.380Z,6.80
2023-11-07T20:19:09.063Z,6.80
2023-11-07T20:22:51.447Z,6.80
2023-11-07T20:26:33.406Z,6.70
2023-11-07T20:30:16.470Z,6.70
2023-11-07T20:33:58.592Z,6.70
2023-11-07T20:37:43.232Z,6.60
2023-11-07T20:41:25.704Z,6.60
2023-11-07T20:45:13.465Z,6.50
2023-11-07T20:48:56.176Z,6.50
2023-11-07T20:52:38.382Z,6.50
2023-11-07T20:56:23.502Z,6.50
2023-11-07T21:00:08.560Z,6.50
2023-11-07T21:03:51.096Z,6.50
2023-11-07T21:07:33.185Z,6.50
2023-11-07T21:11:16.984Z,6.50
2023-11-07T21:14:59.227Z,6.50
2023-11-07T21:18:41.311Z,6.50
2023-11-07T21:22:23.378Z,6.50
2023-11-07T21:26:05.434Z,6.50
2023-11-07T21:29:47.593Z,6.50
2023-11-07T21:33:29.667Z,6.50
2023-11-07T21:37:11.898Z,6.50
2023-11-07T21:40:54.204Z,6.40
2023-11-07T21:44:36.213Z,6.40
2023-11-07T21:48:18.290Z,6.40
2023-11-07T21:52:00.417Z,6.40
2023-11-07T21:55:42.373Z,6.30
2023-11-07T21:59:24.644Z,6.40
2023-11-07T22:03:06.856Z,6.40
2023-11-07T22:06:49.161Z,6.40
2023-11-07T22:10:31.189Z,6.30
2023-11-07T22:14:16.091Z,6.30
2023-11-07T22:17:58.315Z,6.30
2023-11-07T22:21:40.465Z,6.40
2023-11-07T22:25:22.482Z,6.30
2023-11-07T22:29:04.798Z,6.30
2023-11-07T22:32:47.526Z,6.40
2023-11-07T22:36:29.593Z,6.40
2023-11-07T22:40:11.880Z,6.40
2023-11-07T22:43:53.926Z,6.40
2023-11-07T22:47:36.184Z,6.40
2023-11-07T22:51:18.356Z,6.50
2023-11-07T22:55:00.277Z,6.50
2023-11-07T22:58:42.255Z,6.50
2023-11-07T23:02:24.407Z,6.50
2023-11-07T23:06:07.423Z,6.60
2023-11-07T23:09:50.564Z,6.60
2023-11-07T23:13:33.034Z,6.60
2023-11-07T23:17:15.199Z,6.60
2023-11-07T23:20:57.274Z,6.60
2023-11-07T23:24:43.589Z,6.60
2023-11-07T23:28:25.698Z,6.60
2023-11-07T23:32:08.004Z,6.50
2023-11-07T23:35:50.108Z,6.50
2023-11-07T23:39:32.225Z,6.50
2023-11-07T23:43:14.528Z,6.50
2023-11-07T23:46:56.526Z,6.50
2023-11-07T23:50:38.627Z,6.50
2023-11-07T23:54:21.242Z,6.50
2023-11-07T23:58:03.396Z,6.60
